首页
METAR-TAF:

METAR-TAF

机场 :

Army Air Corps Middle Wallop

Middle Wallop, 英格兰

纬度: 51-09N, 经度: 001-34W, 海拔: 91米

当前天气观测

该预报发布于57分钟前的20:50 UTC
风速7节,风向南转西南
温度 8°C
湿度 93%
气压 1007 hPa
能见度10公里或以上

METAR: EGVP 112050Z AUTO 21007KT 9999 NCD 08/07 Q1007

时间: 22:47 (21:47 UTC)

预报

该预报发布于3小时和39分钟前的18:08 UTC
预报有效从11日的 18点(UTC)到 11日的 23点(UTC)
风速12节,风向
能见度10公里或以上
散云层高于1700英尺
短暂存在
从 11日的 18点(UTC)到 11日的 21点(UTC)
少量云层高于1700英尺
几率 30% :
短暂存在
从 11日的 21点(UTC)到 11日的 23点(UTC)
散云层高于1000英尺

TAF: EGVP 111808Z 1118/1123 19012KT 9999 SCT017 TEMPO 1118/1121 FEW017 PROB30 TEMPO 1121/1123 SCT010

超过4000个机场的气象观测和天气预报(METAR&TAF报告)。

可查询的气象台以黄色和红色小点在地图上表示。

将鼠标移到小点上方,可查看气象台名称。

然后点击查看天气观测和预报。

如需切换地图:点击带黑十字的绿色按钮放大地图;点击带横线的绿色按钮缩小地图;或者点击绿色箭头查看邻近地区的地图。


METAR-TAF: